sensor_id;sensor_type;location;lat;lon;timestamp;P1;durP1;ratioP1;P2;durP2;ratioP2
44981;SDS011;30716;41.740;-70.400;2022-12-29T00:01:35;37.15;;;11.50;;
44981;SDS011;30716;41.740;-70.400;2022-12-29T00:04:03;26.15;;;9.40;;
44981;SDS011;30716;41.740;-70.400;2022-12-29T00:06:30;31.95;;;9.57;;
44981;SDS011;30716;41.740;-70.400;2022-12-29T00:08:57;27.83;;;8.88;;
44981;SDS011;30716;41.740;-70.400;2022-12-29T00:11:24;27.65;;;7.80;;
44981;SDS011;30716;41.740;-70.400;2022-12-29T00:13:52;24.70;;;8.60;;
44981;SDS011;30716;41.740;-70.400;2022-12-29T00:16:37;24.98;;;7.90;;
44981;SDS011;30716;41.740;-70.400;2022-12-29T00:19:06;27.15;;;9.35;;
44981;SDS011;30716;41.740;-70.400;2022-12-29T00:21:52;22.58;;;8.00;;
44981;SDS011;30716;41.740;-70.400;2022-12-29T00:24:37;23.13;;;8.18;;
44981;SDS011;30716;41.740;-70.400;2022-12-29T00:27:18;22.80;;;7.47;;
44981;SDS011;30716;41.740;-70.400;2022-12-29T00:30:10;22.73;;;6.82;;
44981;SDS011;30716;41.740;-70.400;2022-12-29T00:32:56;22.55;;;8.43;;
44981;SDS011;30716;41.740;-70.400;2022-12-29T00:35:45;22.35;;;6.65;;
44981;SDS011;30716;41.740;-70.400;2022-12-29T00:38:17;23.02;;;6.65;;
44981;SDS011;30716;41.740;-70.400;2022-12-29T00:51:23;17.52;;;5.72;;
44981;SDS011;30716;41.740;-70.400;2022-12-29T00:53:53;19.73;;;5.47;;
44981;SDS011;30716;41.740;-70.400;2022-12-29T00:56:20;16.67;;;5.03;;
44981;SDS011;30716;41.740;-70.400;2022-12-29T00:58:46;18.00;;;5.13;;
44981;SDS011;30716;41.740;-70.400;2022-12-29T01:01:12;16.65;;;4.90;;
44981;SDS011;30716;41.740;-70.400;2022-12-29T01:03:39;20.40;;;6.32;;
44981;SDS011;30716;41.740;-70.400;2022-12-29T01:09:27;13.15;;;5.50;;
44981;SDS011;30716;41.740;-70.400;2022-12-29T01:12:12;17.63;;;5.93;;
44981;SDS011;30716;41.740;-70.400;2022-12-29T01:14:38;16.52;;;5.45;;
44981;SDS011;30716;41.740;-70.400;2022-12-29T01:17:05;18.05;;;5.05;;
44981;SDS011;30716;41.740;-70.400;2022-12-29T01:19:31;14.38;;;4.70;;
44981;SDS011;30716;41.740;-70.400;2022-12-29T01:21:57;12.98;;;5.65;;
44981;SDS011;30716;41.740;-70.400;2022-12-29T01:24:24;13.82;;;4.63;;
44981;SDS011;30716;41.740;-70.400;2022-12-29T01:26:51;12.38;;;4.35;;
44981;SDS011;30716;41.740;-70.400;2022-12-29T01:29:17;11.95;;;4.53;;
44981;SDS011;30716;41.740;-70.400;2022-12-29T01:31:43;10.07;;;5.07;;
44981;SDS011;30716;41.740;-70.400;2022-12-29T01:34:10;12.10;;;4.93;;
44981;SDS011;30716;41.740;-70.400;2022-12-29T01:36:36;9.38;;;3.78;;
44981;SDS011;30716;41.740;-70.400;2022-12-29T01:39:02;10.73;;;4.07;;
44981;SDS011;30716;41.740;-70.400;2022-12-29T01:41:28;9.10;;;3.75;;
44981;SDS011;30716;41.740;-70.400;2022-12-29T01:43:56;7.53;;;4.03;;
44981;SDS011;30716;41.740;-70.400;2022-12-29T01:49:02;11.35;;;4.10;;
44981;SDS011;30716;41.740;-70.400;2022-12-29T19:54:42;1.10;;;0.68;;
44981;SDS011;30716;41.740;-70.400;2022-12-29T19:57:08;4.18;;;0.73;;
44981;SDS011;30716;41.740;-70.400;2022-12-29T19:59:34;1.98;;;0.90;;
44981;SDS011;30716;41.740;-70.400;2022-12-29T20:02:00;1.25;;;0.73;;
44981;SDS011;30716;41.740;-70.400;2022-12-29T20:04:26;1.40;;;0.93;;
44981;SDS011;30716;41.740;-70.400;2022-12-29T20:06:53;1.17;;;0.68;;
44981;SDS011;30716;41.740;-70.400;2022-12-29T20:09:19;0.88;;;0.75;;
44981;SDS011;30716;41.740;-70.400;2022-12-29T20:11:45;1.25;;;0.80;;
44981;SDS011;30716;41.740;-70.400;2022-12-29T20:14:11;1.98;;;0.88;;
44981;SDS011;30716;41.740;-70.400;2022-12-29T20:16:38;2.15;;;0.70;;
44981;SDS011;30716;41.740;-70.400;2022-12-29T20:19:04;3.53;;;1.00;;
44981;SDS011;30716;41.740;-70.400;2022-12-29T20:21:30;1.02;;;0.65;;
44981;SDS011;30716;41.740;-70.400;2022-12-29T20:23:56;1.52;;;0.70;;
44981;SDS011;30716;41.740;-70.400;2022-12-29T20:26:24;1.17;;;0.70;;
44981;SDS011;30716;41.740;-70.400;2022-12-29T20:28:52;2.30;;;0.80;;
44981;SDS011;30716;41.740;-70.400;2022-12-29T20:31:20;2.17;;;0.80;;
44981;SDS011;30716;41.740;-70.400;2022-12-29T20:33:55;1.55;;;0.82;;
44981;SDS011;30716;41.740;-70.400;2022-12-29T20:36:23;2.13;;;1.10;;
44981;SDS011;30716;41.740;-70.400;2022-12-29T20:38:51;1.58;;;0.82;;
44981;SDS011;30716;41.740;-70.400;2022-12-29T20:41:19;1.42;;;1.10;;
44981;SDS011;30716;41.740;-70.400;2022-12-29T20:43:47;1.17;;;0.73;;
44981;SDS011;30716;41.740;-70.400;2022-12-29T20:46:14;2.65;;;0.70;;
44981;SDS011;30716;41.740;-70.400;2022-12-29T20:48:41;1.38;;;0.70;;
44981;SDS011;30716;41.740;-70.400;2022-12-29T20:51:07;1.23;;;0.80;;
44981;SDS011;30716;41.740;-70.400;2022-12-29T20:53:34;1.20;;;0.80;;
44981;SDS011;30716;41.740;-70.400;2022-12-29T20:56:03;1.48;;;0.68;;
44981;SDS011;30716;41.740;-70.400;2022-12-29T20:58:32;1.48;;;0.90;;
44981;SDS011;30716;41.740;-70.400;2022-12-29T21:01:02;3.25;;;1.20;;
44981;SDS011;30716;41.740;-70.400;2022-12-29T21:03:32;1.35;;;0.80;;
44981;SDS011;30716;41.740;-70.400;2022-12-29T21:05:58;1.67;;;0.75;;
44981;SDS011;30716;41.740;-70.400;2022-12-29T21:08:25;2.47;;;0.80;;
44981;SDS011;30716;41.740;-70.400;2022-12-29T21:10:54;1.52;;;0.77;;
44981;SDS011;30716;41.740;-70.400;2022-12-29T21:13:22;1.08;;;0.68;;
44981;SDS011;30716;41.740;-70.400;2022-12-29T21:15:53;1.80;;;0.85;;
44981;SDS011;30716;41.740;-70.400;2022-12-29T21:18:28;2.20;;;0.80;;
44981;SDS011;30716;41.740;-70.400;2022-12-29T21:20:55;1.27;;;0.68;;
44981;SDS011;30716;41.740;-70.400;2022-12-29T21:23:22;1.60;;;0.60;;
44981;SDS011;30716;41.740;-70.400;2022-12-29T21:25:48;1.08;;;0.63;;
44981;SDS011;30716;41.740;-70.400;2022-12-29T21:28:14;1.00;;;0.60;;
44981;SDS011;30716;41.740;-70.400;2022-12-29T21:30:41;1.95;;;0.95;;
44981;SDS011;30716;41.740;-70.400;2022-12-29T21:33:07;0.95;;;0.60;;
44981;SDS011;30716;41.740;-70.400;2022-12-29T21:35:34;1.58;;;0.70;;
44981;SDS011;30716;41.740;-70.400;2022-12-29T21:38:01;1.63;;;0.70;;
44981;SDS011;30716;41.740;-70.400;2022-12-29T21:40:27;1.13;;;0.70;;
44981;SDS011;30716;41.740;-70.400;2022-12-29T21:42:54;1.58;;;0.80;;
44981;SDS011;30716;41.740;-70.400;2022-12-29T21:45:20;1.77;;;0.90;;
44981;SDS011;30716;41.740;-70.400;2022-12-29T21:47:49;1.65;;;0.88;;
44981;SDS011;30716;41.740;-70.400;2022-12-29T21:50:38;1.38;;;0.80;;
44981;SDS011;30716;41.740;-70.400;2022-12-29T21:53:26;1.05;;;0.50;;
44981;SDS011;30716;41.740;-70.400;2022-12-29T21:56:14;1.95;;;1.00;;
44981;SDS011;30716;41.740;-70.400;2022-12-29T21:58:45;1.00;;;0.63;;
44981;SDS011;30716;41.740;-70.400;2022-12-29T22:01:32;1.48;;;0.93;;
44981;SDS011;30716;41.740;-70.400;2022-12-29T22:04:18;1.40;;;0.70;;
44981;SDS011;30716;41.740;-70.400;2022-12-29T22:07:05;1.50;;;0.85;;
44981;SDS011;30716;41.740;-70.400;2022-12-29T22:09:51;1.73;;;0.80;;
44981;SDS011;30716;41.740;-70.400;2022-12-29T22:12:35;2.40;;;0.95;;
44981;SDS011;30716;41.740;-70.400;2022-12-29T22:15:20;1.20;;;0.70;;
44981;SDS011;30716;41.740;-70.400;2022-12-29T22:17:47;1.38;;;0.75;;
44981;SDS011;30716;41.740;-70.400;2022-12-29T22:20:15;1.42;;;0.75;;
44981;SDS011;30716;41.740;-70.400;2022-12-29T22:22:43;2.17;;;1.17;;
44981;SDS011;30716;41.740;-70.400;2022-12-29T22:25:09;2.05;;;0.98;;
44981;SDS011;30716;41.740;-70.400;2022-12-29T22:27:35;1.13;;;0.60;;
44981;SDS011;30716;41.740;-70.400;2022-12-29T22:30:01;1.55;;;1.00;;
44981;SDS011;30716;41.740;-70.400;2022-12-29T22:32:29;1.48;;;0.90;;
44981;SDS011;30716;41.740;-70.400;2022-12-29T22:34:56;2.15;;;1.00;;
44981;SDS011;30716;41.740;-70.400;2022-12-29T22:37:22;1.63;;;1.00;;
44981;SDS011;30716;41.740;-70.400;2022-12-29T22:39:49;0.93;;;0.70;;
44981;SDS011;30716;41.740;-70.400;2022-12-29T22:42:15;1.83;;;0.88;;
44981;SDS011;30716;41.740;-70.400;2022-12-29T22:44:41;1.02;;;0.80;;
44981;SDS011;30716;41.740;-70.400;2022-12-29T22:47:08;1.00;;;0.73;;
44981;SDS011;30716;41.740;-70.400;2022-12-29T22:49:35;1.48;;;0.80;;
44981;SDS011;30716;41.740;-70.400;2022-12-29T22:52:01;1.25;;;0.80;;
44981;SDS011;30716;41.740;-70.400;2022-12-29T22:54:28;1.77;;;1.00;;
44981;SDS011;30716;41.740;-70.400;2022-12-29T22:56:54;2.00;;;1.00;;
44981;SDS011;30716;41.740;-70.400;2022-12-29T22:59:20;2.97;;;1.50;;
44981;SDS011;30716;41.740;-70.400;2022-12-29T23:01:47;3.42;;;1.50;;
44981;SDS011;30716;41.740;-70.400;2022-12-29T23:04:13;4.10;;;1.90;;
44981;SDS011;30716;41.740;-70.400;2022-12-29T23:06:40;2.90;;;1.63;;
44981;SDS011;30716;41.740;-70.400;2022-12-29T23:09:06;3.50;;;1.83;;
44981;SDS011;30716;41.740;-70.400;2022-12-29T23:11:33;3.47;;;1.80;;
44981;SDS011;30716;41.740;-70.400;2022-12-29T23:13:59;5.33;;;2.53;;
44981;SDS011;30716;41.740;-70.400;2022-12-29T23:16:26;4.05;;;2.22;;
44981;SDS011;30716;41.740;-70.400;2022-12-29T23:18:52;4.63;;;2.63;;
44981;SDS011;30716;41.740;-70.400;2022-12-29T23:21:19;5.68;;;2.53;;
44981;SDS011;30716;41.740;-70.400;2022-12-29T23:23:46;4.57;;;2.13;;
44981;SDS011;30716;41.740;-70.400;2022-12-29T23:28:51;4.38;;;2.10;;
44981;SDS011;30716;41.740;-70.400;2022-12-29T23:31:19;4.32;;;1.95;;
44981;SDS011;30716;41.740;-70.400;2022-12-29T23:33:46;6.75;;;2.20;;
44981;SDS011;30716;41.740;-70.400;2022-12-29T23:36:12;4.82;;;2.00;;
44981;SDS011;30716;41.740;-70.400;2022-12-29T23:38:39;4.00;;;1.85;;
44981;SDS011;30716;41.740;-70.400;2022-12-29T23:41:06;3.08;;;1.80;;
44981;SDS011;30716;41.740;-70.400;2022-12-29T23:43:32;3.85;;;1.92;;
44981;SDS011;30716;41.740;-70.400;2022-12-29T23:46:04;3.33;;;2.28;;
44981;SDS011;30716;41.740;-70.400;2022-12-29T23:48:31;4.13;;;2.30;;
44981;SDS011;30716;41.740;-70.400;2022-12-29T23:50:57;4.30;;;2.30;;
44981;SDS011;30716;41.740;-70.400;2022-12-29T23:53:24;4.35;;;2.15;;
44981;SDS011;30716;41.740;-70.400;2022-12-29T23:55:54;4.57;;;2.00;;
44981;SDS011;30716;41.740;-70.400;2022-12-29T23:58:20;5.97;;;2.83;;
